Terminal Aerodrome Forecast
Issued by NWS

Home | Current Version | Previous Version | Text Only | Print | Product List | Glossary On
Versions: 1 2 3 4 5 6 7 8 9 10 11 12 13 14 15
970
FTUS41 KCAR 191720
TAFBHB
TAF
KBHB 191720Z 1918/2018 22007KT P6SM VCSH BKN100
     FM200500 32005KT P6SM VCSH OVC021
     FM201100 33008KT P6SM OVC010
     FM201500 34012KT P6SM VCSH OVC023=

USA.gov is the U.S. government's official web portal to all federal, state and local government web resources and services.